Arabia, CA

7:58 AM PDT on June 02, 2015 (GMT -0700)
Twentynine Palms Expeditionary Air Field | | Change Station
CLOSE
Current Station
Airport
Location: Twentynine Palms,
Elevation: 2054 ft
Nearby Weather Stations

Elev 2054 ft 34.30 °N, 116.16 °W | Updated 2 minutes ago

Clear
Clear
72 °F
Feels Like 72 °F
N
9
Wind Variable Wind from West

Today
High -- | Low -- °F
--% Chance of Precip.
Yesterday
High -- | Low -- °F
Precip. -- in
5:35 AM 7:50 PM
Full, 100% visible
Pressure 29.91 in
Visibility 10.0 miles
Clouds Clear
Dew Point 33 °F
Humidity 24%
Rainfall 0.00 in
Snow Depth Not available.
UV 2 out of 12
Pollen 5.20 out of 12
Air Quality Not available.
Flu Activity Sporadic
METAR KNXP 021456Z AUTO 27008KT 10SM CLR 22/01 A3001 RMK AO2 SLP127 T02220006 53011

More Conditions Fewer Conditions

Pressure 29.91 in
Visibility 10.0 miles
Clouds Clear
Dew Point 33 °F
Humidity 24%
Rainfall 0.00 in
Snow Depth Not available.
UV 2 out of 12
Pollen 5.20 out of 12
Air Quality Not available.
Flu Activity Sporadic
METAR KNXP 021456Z AUTO 27008KT 10SM CLR 22/01 A3001 RMK AO2 SLP127 T02220006 53011

More Conditions Fewer Conditions

10-Day Weather Forecast

Almanac

Astronomy

Jun. 02, 2015 Rise Set
Actual Time
Civil Twilight
Nautical Twilight
Astronomical Twilight
Moon
Length of Visible Light
Length of Day
Tomorrow will be .
, % of the Moon is Illuminated

Today's Extremes

State Highs State Lows

Community

WunderPhotos

Upload Photos

1,825,931 photos uploaded!

WunderBlogs® & News

Nearby

Air Quality

  Air Quality AQ Index Pollutant
Not available.

Snow Depth

Station Depth Elevation

Earthquake Activity

City Distance Mag. Time & Date
Minimum magnitude displayed is 2.5.

Coastal Water Temperatures

Place Temperature

Stations

Nearby Weather Stations

Station Location Temp. Windchill Dew Point Humidity Wind Precip. Elev Updated Type